Time;durP1;ratioP1;P1;durP2;ratioP2;P2;SDS_P1;SDS_P2;PMS_P1;PMS_P2;Temp;Humidity;BMP_temperature;BMP_pressure;BME280_temperature;BME280_humidity;BME280_pressure;Samples;Min_cycle;Max_cycle;Signal;HPM_P1;HPM_P2
2023/06/23 00:01:36;;;;;;;3.40;0.70;;;24.30;70.80;;;;;;5083782;28;20495;-79
2023/06/23 00:04:04;;;;;;;4.83;0.87;;;24.20;70.80;;;;;;5085260;28;20464;-81
2023/06/23 00:06:33;;;;;;;5.60;1.00;;;24.20;70.90;;;;;;5085366;28;20950;-81
2023/06/23 00:09:07;;;;;;;6.67;0.60;;;24.10;71.00;;;;;;5088165;28;20481;-80
2023/06/23 00:11:35;;;;;;;5.70;0.60;;;24.10;71.10;;;;;;5084829;28;20460;-77
2023/06/23 00:14:03;;;;;;;3.20;0.53;;;24.00;71.30;;;;;;5086339;28;20468;-78
2023/06/23 00:16:31;;;;;;;3.80;0.80;;;24.00;71.30;;;;;;5091733;28;20463;-78
2023/06/23 00:19:00;;;;;;;3.40;0.60;;;24.00;71.40;;;;;;5085365;28;20471;-80
2023/06/23 00:21:28;;;;;;;4.50;0.50;;;24.00;71.50;;;;;;5086151;28;20553;-78
2023/06/23 00:23:56;;;;;;;3.70;0.63;;;24.00;71.60;;;;;;5088388;28;20464;-78
2023/06/23 00:26:25;;;;;;;3.20;0.57;;;23.90;71.70;;;;;;5084334;28;20537;-80
2023/06/23 00:28:53;;;;;;;4.23;0.50;;;23.90;71.80;;;;;;5069460;28;20464;-79
2023/06/23 00:31:21;;;;;;;3.90;0.80;;;23.80;71.90;;;;;;5070524;28;21014;-80
2023/06/23 00:33:49;;;;;;;4.67;0.60;;;23.80;72.00;;;;;;5083871;28;20813;-79
2023/06/23 00:36:17;;;;;;;4.07;0.60;;;23.80;72.20;;;;;;5085487;28;20494;-80
2023/06/23 00:38:45;;;;;;;4.47;0.73;;;23.80;72.20;;;;;;5070034;28;20465;-78
2023/06/23 00:41:22;;;;;;;3.70;0.57;;;23.80;72.20;;;;;;5083980;28;20825;-80
2023/06/23 00:43:51;;;;;;;4.13;0.50;;;23.80;72.20;;;;;;5088691;28;20907;-79
2023/06/23 00:46:21;;;;;;;3.50;0.50;;;23.70;72.20;;;;;;5068346;28;20562;-80
2023/06/23 00:48:49;;;;;;;3.47;0.77;;;23.70;72.30;;;;;;5071592;28;20460;-78
2023/06/23 00:51:17;;;;;;;4.70;0.80;;;23.60;72.40;;;;;;5080995;28;20580;-79
2023/06/23 00:53:47;;;;;;;4.33;1.70;;;23.60;72.50;;;;;;5086999;28;20488;-80
2023/06/23 00:56:15;;;;;;;4.30;1.53;;;23.60;72.30;;;;;;5084411;28;20913;-82
2023/06/23 00:58:43;;;;;;;4.97;2.17;;;23.60;72.10;;;;;;5071226;28;20468;-79
2023/06/23 01:01:12;;;;;;;5.60;2.53;;;23.60;72.00;;;;;;5082001;28;20483;-79
2023/06/23 01:03:40;;;;;;;6.17;2.93;;;23.50;71.90;;;;;;5067701;28;21115;-79
2023/06/23 01:06:16;;;;;;;5.30;2.70;;;23.50;71.80;;;;;;5087339;28;20453;-79
2023/06/23 01:13:03;;;;;;;7.23;3.80;;;23.40;71.40;;;;;;5082036;28;20416;-79
2023/06/23 01:15:34;;;;;;;8.27;3.53;;;23.20;71.30;;;;;;5080230;28;20930;-79
2023/06/23 01:18:09;;;;;;;7.23;3.93;;;23.20;71.40;;;;;;5078481;28;20548;-78
2023/06/23 01:20:41;;;;;;;5.70;3.30;;;23.10;71.30;;;;;;5077864;28;20495;-80
2023/06/23 01:23:35;;;;;;;7.10;3.90;;;23.10;71.40;;;;;;5070317;28;21163;-79
2023/06/23 01:26:23;;;;;;;8.00;3.67;;;23.10;71.40;;;;;;5083928;28;20472;-80
2023/06/23 01:28:58;;;;;;;6.77;3.87;;;23.10;71.40;;;;;;5081702;28;20490;-79
2023/06/23 01:31:32;;;;;;;11.43;4.37;;;23.00;71.30;;;;;;5085875;28;20501;-79
2023/06/23 01:34:06;;;;;;;9.00;4.43;;;23.00;71.30;;;;;;5064882;28;20465;-80
2023/06/23 01:36:42;;;;;;;7.37;4.70;;;23.00;71.30;;;;;;5068764;28;21006;-79
2023/06/23 01:39:17;;;;;;;8.07;5.20;;;22.90;71.20;;;;;;5066823;28;20464;-80
2023/06/23 01:41:52;;;;;;;7.23;4.57;;;22.90;71.30;;;;;;5068656;28;20450;-81
2023/06/23 01:44:24;;;;;;;6.97;4.30;;;22.90;71.20;;;;;;5085004;28;20849;-80
2023/06/23 01:46:56;;;;;;;7.77;4.67;;;22.90;71.20;;;;;;5086607;28;20471;-80
2023/06/23 01:49:28;;;;;;;8.10;4.93;;;22.90;71.10;;;;;;5083046;28;20748;-79
2023/06/23 01:51:57;;;;;;;7.40;5.00;;;22.90;71.10;;;;;;5082230;28;20453;-80
2023/06/23 01:54:27;;;;;;;8.23;4.63;;;22.90;71.00;;;;;;5083827;28;20459;-81
2023/06/23 01:56:56;;;;;;;8.60;5.33;;;22.90;70.90;;;;;;5066012;28;20460;-78
2023/06/23 01:59:27;;;;;;;9.70;5.93;;;22.90;70.80;;;;;;5071461;28;20469;-80
2023/06/23 02:01:56;;;;;;;9.67;5.13;;;22.90;70.70;;;;;;5067777;28;20476;-80
2023/06/23 02:04:25;;;;;;;11.57;5.60;;;22.80;70.60;;;;;;5082950;28;20462;-79
2023/06/23 02:06:56;;;;;;;11.40;5.33;;;22.70;70.70;;;;;;5065717;28;20460;-79
2023/06/23 02:09:26;;;;;;;8.43;5.43;;;22.70;70.70;;;;;;5067098;28;20477;-80
2023/06/23 02:11:57;;;;;;;8.30;5.50;;;22.70;70.60;;;;;;5081894;28;20456;-78
2023/06/23 02:14:28;;;;;;;11.30;5.67;;;22.60;70.60;;;;;;5084054;28;20469;-79
2023/06/23 02:16:58;;;;;;;11.27;5.80;;;22.60;70.60;;;;;;5082088;28;20564;-81
2023/06/23 02:19:29;;;;;;;7.90;4.83;;;22.60;70.50;;;;;;5069910;28;20905;-78
2023/06/23 02:21:58;;;;;;;8.63;4.87;;;22.50;70.50;;;;;;5081296;28;20469;-80
2023/06/23 02:24:27;;;;;;;9.27;5.40;;;22.50;70.60;;;;;;5083098;28;20472;-79
2023/06/23 02:26:55;;;;;;;8.90;5.80;;;22.60;70.60;;;;;;5069320;28;20456;-79
2023/06/23 02:29:26;;;;;;;9.53;6.07;;;22.60;70.50;;;;;;5079986;28;20480;-78
2023/06/23 02:31:54;;;;;;;9.57;5.70;;;22.60;70.50;;;;;;5082093;28;20483;-79
2023/06/23 02:34:22;;;;;;;8.70;5.87;;;22.50;70.50;;;;;;5084570;28;20850;-78
2023/06/23 02:36:52;;;;;;;11.10;6.00;;;22.50;70.60;;;;;;5084249;28;20456;-79
2023/06/23 02:39:26;;;;;;;10.17;6.37;;;22.60;70.70;;;;;;5083397;28;20461;-79
2023/06/23 02:41:57;;;;;;;9.27;6.37;;;22.60;70.80;;;;;;5081713;28;20477;-80
2023/06/23 02:44:31;;;;;;;10.13;6.10;;;22.60;70.80;;;;;;5068322;28;20461;-79
2023/06/23 02:47:01;;;;;;;10.07;5.70;;;22.70;70.80;;;;;;5080977;28;20473;-80
2023/06/23 02:49:32;;;;;;;9.63;5.87;;;22.60;70.70;;;;;;5084151;28;20448;-80
2023/06/23 02:52:02;;;;;;;11.77;6.70;;;22.60;70.80;;;;;;5062915;28;20541;-78
2023/06/23 02:54:35;;;;;;;9.40;6.30;;;22.60;70.80;;;;;;5068443;28;20465;-79
2023/06/23 02:57:05;;;;;;;13.10;7.23;;;22.60;70.90;;;;;;5085322;28;20452;-79
2023/06/23 02:59:35;;;;;;;9.13;5.83;;;22.70;70.90;;;;;;5064667;28;20464;-81
2023/06/23 03:02:06;;;;;;;7.83;4.97;;;22.60;70.80;;;;;;5063024;28;20482;-79
2023/06/23 03:04:38;;;;;;;8.97;5.20;;;22.50;70.80;;;;;;5066444;28;20461;-78
2023/06/23 03:07:07;;;;;;;9.47;5.67;;;22.50;70.90;;;;;;5077724;28;20458;-79
2023/06/23 03:09:35;;;;;;;11.53;5.83;;;22.50;70.90;;;;;;5082461;28;20461;-81
2023/06/23 03:12:03;;;;;;;8.90;6.37;;;22.50;70.90;;;;;;5079694;28;20457;-80
2023/06/23 03:14:37;;;;;;;7.10;4.90;;;22.40;70.80;;;;;;5064598;28;20531;-81
2023/06/23 03:17:11;;;;;;;9.17;6.00;;;22.50;70.80;;;;;;5078569;28;20545;-80
2023/06/23 03:19:46;;;;;;;10.80;5.20;;;22.50;70.70;;;;;;5083016;28;21245;-81
2023/06/23 03:22:20;;;;;;;12.00;5.73;;;22.40;70.60;;;;;;5082147;28;20588;-78
2023/06/23 03:24:54;;;;;;;9.10;5.50;;;22.40;70.60;;;;;;5077600;28;20532;-79
2023/06/23 03:27:24;;;;;;;8.40;5.43;;;22.40;70.50;;;;;;5065804;28;20536;-79
2023/06/23 03:29:59;;;;;;;9.90;5.60;;;22.40;70.40;;;;;;5083235;28;20457;-78
2023/06/23 03:32:32;;;;;;;7.07;4.67;;;22.40;70.40;;;;;;5080757;28;20477;-81
2023/06/23 03:35:03;;;;;;;8.20;5.30;;;22.40;70.40;;;;;;5060372;28;20536;-80
2023/06/23 03:37:33;;;;;;;9.40;5.80;;;22.40;70.40;;;;;;5060133;28;21137;-78
2023/06/23 03:40:07;;;;;;;9.70;6.00;;;22.40;70.20;;;;;;5073766;28;20539;-79
2023/06/23 03:42:37;;;;;;;9.50;5.47;;;22.40;70.10;;;;;;5077364;28;20535;-79
2023/06/23 03:45:10;;;;;;;9.00;6.00;;;22.30;70.10;;;;;;5084593;28;20457;-79
2023/06/23 03:47:40;;;;;;;12.47;5.93;;;22.30;70.20;;;;;;5083278;28;20468;-78
2023/06/23 03:50:24;;;;;;;10.17;5.50;;;22.40;70.20;;;;;;5078652;28;20935;-78
2023/06/23 03:52:54;;;;;;;8.43;5.47;;;22.30;70.10;;;;;;5076759;28;20512;-78
2023/06/23 03:55:23;;;;;;;11.33;5.80;;;22.30;70.20;;;;;;5084316;28;20444;-81
2023/06/23 03:57:53;;;;;;;9.63;5.90;;;22.30;70.30;;;;;;5080537;28;20464;-80
2023/06/23 04:00:23;;;;;;;12.63;6.00;;;22.30;70.30;;;;;;5079479;28;20489;-79
2023/06/23 04:02:56;;;;;;;10.93;5.93;;;22.20;70.10;;;;;;5082328;28;20488;-79
2023/06/23 04:05:26;;;;;;;8.47;5.73;;;22.20;70.20;;;;;;5083927;28;20489;-80
2023/06/23 04:07:55;;;;;;;9.90;6.60;;;22.20;70.20;;;;;;5078011;28;20838;-80
2023/06/23 04:10:24;;;;;;;10.13;5.47;;;22.20;70.20;;;;;;5074824;28;20476;-80
2023/06/23 04:12:53;;;;;;;8.23;5.70;;;22.10;70.10;;;;;;5075462;28;20455;-80
2023/06/23 04:15:25;;;;;;;9.43;5.50;;;22.10;70.20;;;;;;5075529;28;20463;-79
2023/06/23 04:17:56;;;;;;;9.13;5.80;;;22.10;70.30;;;;;;5082940;28;21025;-80
2023/06/23 04:20:25;;;;;;;8.73;5.73;;;22.10;70.30;;;;;;5078846;28;21009;-81
2023/06/23 04:22:54;;;;;;;10.70;5.90;;;22.10;70.30;;;;;;5073470;28;20562;-81
2023/06/23 04:25:23;;;;;;;12.60;6.80;;;22.10;70.20;;;;;;5080825;28;20452;-82
2023/06/23 04:27:57;;;;;;;8.63;5.40;;;22.10;70.30;;;;;;5072904;28;20463;-79
2023/06/23 04:30:29;;;;;;;9.83;6.47;;;22.10;70.30;;;;;;5080106;28;20981;-78
2023/06/23 04:32:57;;;;;;;10.13;7.20;;;22.10;70.30;;;;;;5086552;28;20799;-80
2023/06/23 04:35:25;;;;;;;8.90;5.40;;;22.10;70.20;;;;;;5085528;28;20510;-81
2023/06/23 04:38:14;;;;;;;10.63;6.70;;;22.10;70.20;;;;;;5071535;28;20978;-79
2023/06/23 04:40:47;;;;;;;10.50;6.67;;;22.00;70.20;;;;;;5079293;28;20469;-80
2023/06/23 04:43:20;;;;;;;11.47;6.60;;;22.00;70.30;;;;;;5083734;28;20485;-80
2023/06/23 04:45:54;;;;;;;9.47;6.23;;;21.90;70.40;;;;;;5084691;28;20468;-79
2023/06/23 04:48:26;;;;;;;10.53;6.33;;;21.90;70.40;;;;;;5069532;28;20457;-80
2023/06/23 04:50:58;;;;;;;11.50;7.30;;;21.90;70.50;;;;;;5083063;28;22071;-80
2023/06/23 04:53:32;;;;;;;14.20;7.63;;;21.90;70.60;;;;;;5081580;28;20955;-79
2023/06/23 04:56:04;;;;;;;10.23;6.73;;;21.90;70.50;;;;;;5085791;28;20459;-81
2023/06/23 04:58:36;;;;;;;9.53;6.47;;;21.90;70.50;;;;;;5083946;28;20485;-79
2023/06/23 05:01:11;;;;;;;10.73;6.60;;;21.90;70.50;;;;;;5082706;28;21192;-80
2023/06/23 05:03:40;;;;;;;11.33;6.60;;;21.90;70.50;;;;;;5090897;28;20449;-80
2023/06/23 05:06:12;;;;;;;8.53;6.20;;;21.90;70.50;;;;;;5085359;28;20458;-80
2023/06/23 05:08:45;;;;;;;7.50;5.40;;;21.80;70.60;;;;;;5087064;28;20939;-78
2023/06/23 05:11:14;;;;;;;12.20;5.60;;;21.80;70.50;;;;;;5085070;28;20457;-81
2023/06/23 05:13:43;;;;;;;9.40;5.77;;;21.90;70.50;;;;;;5071985;28;20488;-78
2023/06/23 05:16:14;;;;;;;9.43;5.83;;;21.80;70.40;;;;;;5084128;28;20452;-79
2023/06/23 05:18:46;;;;;;;8.77;5.70;;;21.90;70.50;;;;;;5086079;28;20463;-80
2023/06/23 05:21:15;;;;;;;9.50;6.40;;;21.90;70.40;;;;;;5081989;28;20464;-81
2023/06/23 05:23:45;;;;;;;8.83;5.80;;;21.90;70.20;;;;;;5082765;28;20485;-79
2023/06/23 05:26:24;;;;;;;11.47;5.50;;;21.80;70.20;;;;;;5089533;28;20475;-81
2023/06/23 05:28:54;;;;;;;12.20;5.40;;;21.80;70.20;;;;;;5090626;28;20798;-82
2023/06/23 05:31:26;;;;;;;8.47;5.37;;;21.80;70.20;;;;;;5083509;28;20471;-79
2023/06/23 05:33:57;;;;;;;7.23;4.33;;;21.70;70.30;;;;;;5084840;28;20505;-79
2023/06/23 05:36:27;;;;;;;13.53;5.20;;;21.80;70.10;;;;;;5087741;28;20456;-80
2023/06/23 05:38:57;;;;;;;7.70;5.70;;;21.70;70.10;;;;;;5085037;28;21204;-79
2023/06/23 05:41:25;;;;;;;9.60;5.30;;;21.70;70.10;;;;;;5088280;28;20453;-80
2023/06/23 05:43:53;;;;;;;7.97;5.07;;;21.70;70.10;;;;;;5084903;28;20483;-80
2023/06/23 05:46:28;;;;;;;7.57;4.60;;;21.70;70.10;;;;;;5083519;28;20467;-79
2023/06/23 05:49:04;;;;;;;7.87;5.07;;;21.60;70.00;;;;;;5080452;28;20456;-82
2023/06/23 05:51:33;;;;;;;12.10;4.90;;;21.60;70.20;;;;;;5081252;28;20472;-78
2023/06/23 05:54:09;;;;;;;14.23;5.27;;;21.60;70.10;;;;;;5083508;28;20461;-81
2023/06/23 05:56:43;;;;;;;9.20;5.30;;;21.60;70.20;;;;;;5089194;28;20445;-81
2023/06/23 05:59:25;;;;;;;9.03;5.60;;;21.60;70.20;;;;;;5084618;28;20494;-80
2023/06/23 06:02:02;;;;;;;9.60;5.40;;;21.70;70.30;;;;;;5084023;28;20480;-80
2023/06/23 06:04:33;;;;;;;8.27;5.27;;;21.70;70.30;;;;;;5084489;28;20459;-79
2023/06/23 06:07:02;;;;;;;8.47;5.30;;;21.70;70.30;;;;;;5082137;28;20452;-82
2023/06/23 06:09:32;;;;;;;11.33;5.47;;;21.70;70.30;;;;;;5083760;28;20468;-79
2023/06/23 06:12:01;;;;;;;7.93;4.53;;;21.70;70.20;;;;;;5084015;28;20818;-81
2023/06/23 06:14:30;;;;;;;11.10;4.90;;;21.70;70.20;;;;;;5090426;28;20455;-81
2023/06/23 06:17:01;;;;;;;7.60;4.40;;;21.70;70.20;;;;;;5088408;28;20445;-81
2023/06/23 06:19:32;;;;;;;10.53;4.60;;;21.70;70.30;;;;;;5073116;28;20452;-80
2023/06/23 06:22:02;;;;;;;9.30;5.23;;;21.60;70.30;;;;;;5086719;28;20552;-80
2023/06/23 06:24:31;;;;;;;9.83;5.50;;;21.60;70.40;;;;;;5087298;28;21197;-79
2023/06/23 06:27:01;;;;;;;9.20;5.70;;;21.70;70.40;;;;;;5086412;28;20532;-80
2023/06/23 06:29:30;;;;;;;8.90;4.60;;;21.70;70.50;;;;;;5067423;28;20536;-80
2023/06/23 06:32:00;;;;;;;10.33;4.80;;;21.70;70.50;;;;;;5085455;28;20961;-79
2023/06/23 06:34:32;;;;;;;8.60;5.60;;;21.60;70.50;;;;;;5089570;28;20472;-79
2023/06/23 06:37:02;;;;;;;8.30;5.00;;;21.60;70.60;;;;;;5085141;28;20840;-78
2023/06/23 06:39:30;;;;;;;8.23;5.17;;;21.60;70.60;;;;;;5084261;28;20454;-81
2023/06/23 06:41:59;;;;;;;9.33;5.00;;;21.70;70.60;;;;;;5079996;28;20459;-79
2023/06/23 06:44:27;;;;;;;10.43;4.90;;;21.60;70.50;;;;;;5066970;28;20441;-80
2023/06/23 06:46:56;;;;;;;7.53;5.17;;;21.60;70.50;;;;;;5088227;28;20461;-80
2023/06/23 06:49:27;;;;;;;9.83;6.00;;;21.60;70.60;;;;;;5080784;28;20480;-82
2023/06/23 06:51:55;;;;;;;9.77;5.37;;;21.60;70.60;;;;;;5086484;28;21199;-82
2023/06/23 06:54:23;;;;;;;7.53;5.00;;;21.60;70.50;;;;;;5080327;28;20448;-80
2023/06/23 06:56:51;;;;;;;8.57;5.53;;;21.50;70.50;;;;;;5079172;28;20911;-79
2023/06/23 06:59:19;;;;;;;7.50;4.90;;;21.50;70.50;;;;;;5080251;28;20454;-80
2023/06/23 07:01:48;;;;;;;9.33;5.43;;;21.50;70.60;;;;;;5083035;28;20554;-81
2023/06/23 07:04:16;;;;;;;10.60;6.10;;;21.40;70.50;;;;;;5064767;28;20478;-81
2023/06/23 07:06:52;;;;;;;10.10;5.67;;;21.40;70.50;;;;;;5071554;28;20456;-81
2023/06/23 07:09:19;;;;;;;10.07;6.20;;;21.30;70.60;;;;;;5073378;28;20488;-79
2023/06/23 07:11:48;;;;;;;11.00;6.20;;;21.30;70.70;;;;;;5064689;28;20471;-80
2023/06/23 07:14:16;;;;;;;13.10;6.17;;;21.30;70.70;;;;;;5081181;28;20449;-80
2023/06/23 07:16:44;;;;;;;10.80;6.10;;;21.20;70.80;;;;;;5085572;28;20453;-79
2023/06/23 07:19:12;;;;;;;9.47;6.20;;;21.20;70.80;;;;;;5079378;28;20536;-80
2023/06/23 07:21:40;;;;;;;9.10;5.97;;;21.20;70.90;;;;;;5086894;28;20451;-81
2023/06/23 07:24:10;;;;;;;8.50;6.07;;;21.20;70.90;;;;;;5082691;28;20466;-79
2023/06/23 07:26:38;;;;;;;8.80;6.10;;;21.20;70.90;;;;;;5084258;28;20548;-78
2023/06/23 07:29:06;;;;;;;10.50;6.77;;;21.20;70.90;;;;;;5088493;28;20450;-80
2023/06/23 07:31:37;;;;;;;8.67;5.80;;;21.20;70.90;;;;;;5085881;28;20609;-80
2023/06/23 07:34:06;;;;;;;8.77;6.43;;;21.20;70.90;;;;;;5082765;28;20519;-81
2023/06/23 07:36:34;;;;;;;9.37;6.07;;;21.20;70.90;;;;;;5082365;28;20485;-82
2023/06/23 07:39:02;;;;;;;11.27;7.47;;;21.30;70.80;;;;;;5082121;28;20452;-81
2023/06/23 07:41:31;;;;;;;11.10;6.47;;;21.20;70.80;;;;;;5074347;28;20455;-80
2023/06/23 07:43:59;;;;;;;8.70;6.50;;;21.20;70.70;;;;;;5081984;28;21023;-80
2023/06/23 07:46:27;;;;;;;9.13;5.97;;;21.20;70.70;;;;;;5082933;28;20467;-79
2023/06/23 07:48:55;;;;;;;12.20;7.03;;;21.20;70.70;;;;;;5078797;28;21191;-79
2023/06/23 07:51:23;;;;;;;12.10;5.97;;;21.20;70.70;;;;;;5084605;28;20445;-80
2023/06/23 07:53:51;;;;;;;11.40;6.37;;;21.20;70.60;;;;;;5076695;28;20535;-79
2023/06/23 07:56:34;;;;;;;10.07;6.20;;;21.20;70.60;;;;;;5071633;28;20939;-80
2023/06/23 07:59:03;;;;;;;10.67;5.80;;;21.30;70.50;;;;;;5076202;28;20453;-80
2023/06/23 08:01:32;;;;;;;10.50;6.70;;;21.20;70.50;;;;;;5076622;28;21063;-81
2023/06/23 08:04:00;;;;;;;9.60;6.50;;;21.20;70.50;;;;;;5060048;28;20929;-82
2023/06/23 08:06:29;;;;;;;9.50;5.97;;;21.20;70.50;;;;;;5082973;28;20452;-79
2023/06/23 08:08:57;;;;;;;7.93;5.50;;;21.20;70.50;;;;;;5081430;28;20446;-78
2023/06/23 08:11:25;;;;;;;9.87;6.57;;;21.20;70.50;;;;;;5087044;28;20464;-79
2023/06/23 08:13:54;;;;;;;10.07;6.63;;;21.30;70.50;;;;;;5089085;28;20484;-79
2023/06/23 08:16:23;;;;;;;9.47;6.40;;;21.30;70.50;;;;;;5070807;28;20476;-79
2023/06/23 08:18:51;;;;;;;8.70;6.27;;;21.30;70.50;;;;;;5088133;28;20615;-81
2023/06/23 08:21:19;;;;;;;8.87;5.97;;;21.20;70.40;;;;;;5081370;28;20448;-80
2023/06/23 08:23:47;;;;;;;9.60;5.70;;;21.20;70.50;;;;;;5085620;28;20484;-80
2023/06/23 08:26:17;;;;;;;9.00;6.37;;;21.20;70.60;;;;;;5087258;28;20815;-81
2023/06/23 08:28:45;;;;;;;10.03;6.40;;;21.30;70.60;;;;;;5071013;28;20461;-81
2023/06/23 08:31:14;;;;;;;9.63;6.27;;;21.30;70.50;;;;;;5083109;28;20472;-81
2023/06/23 08:33:44;;;;;;;10.03;6.33;;;21.30;70.50;;;;;;5085726;28;20452;-82
2023/06/23 08:36:12;;;;;;;11.07;6.30;;;21.40;70.50;;;;;;5088851;28;20476;-80
2023/06/23 08:38:40;;;;;;;9.33;6.23;;;21.40;70.40;;;;;;5078914;28;20456;-81
2023/06/23 08:41:10;;;;;;;8.47;5.77;;;21.40;70.20;;;;;;5072533;28;20445;-81
2023/06/23 08:43:45;;;;;;;10.03;6.50;;;21.40;70.20;;;;;;5086734;28;20486;-80
2023/06/23 08:46:15;;;;;;;8.60;6.50;;;21.40;70.20;;;;;;5087889;28;20502;-81
2023/06/23 08:48:47;;;;;;;11.20;7.27;;;21.30;70.30;;;;;;5089399;28;20506;-79
2023/06/23 08:51:15;;;;;;;12.67;6.67;;;21.40;70.30;;;;;;5082701;28;20452;-79
2023/06/23 08:53:44;;;;;;;10.27;6.93;;;21.40;70.40;;;;;;5084178;28;20441;-81
2023/06/23 08:56:14;;;;;;;9.53;6.50;;;21.40;70.40;;;;;;5080536;28;20437;-79
2023/06/23 08:58:42;;;;;;;9.80;7.23;;;21.40;70.40;;;;;;5089057;28;20456;-80
2023/06/23 09:01:10;;;;;;;9.70;7.20;;;21.40;70.40;;;;;;5081831;28;20468;-79
2023/06/23 09:03:46;;;;;;;9.60;7.13;;;21.40;70.40;;;;;;5085765;28;20449;-80
2023/06/23 09:06:14;;;;;;;10.50;6.90;;;21.40;70.50;;;;;;5083467;28;20441;-81
2023/06/23 09:08:41;;;;;;;8.90;6.60;;;21.40;70.50;;;;;;5086543;28;20792;-81
2023/06/23 09:11:09;;;;;;;13.23;6.70;;;21.40;70.60;;;;;;5080366;28;20473;-79
2023/06/23 09:13:41;;;;;;;11.10;6.93;;;21.40;70.50;;;;;;5091014;28;20556;-81
2023/06/23 09:16:10;;;;;;;10.67;7.13;;;21.50;70.50;;;;;;5073582;28;20464;-79
2023/06/23 09:18:40;;;;;;;10.60;6.90;;;21.50;70.40;;;;;;5073755;28;21001;-81
2023/06/23 09:21:10;;;;;;;10.60;7.40;;;21.50;70.40;;;;;;5086442;28;20469;-78
2023/06/23 09:23:39;;;;;;;11.60;7.20;;;21.50;70.30;;;;;;5070702;28;20457;-78
2023/06/23 09:26:07;;;;;;;10.80;7.80;;;21.50;70.20;;;;;;5083852;28;20457;-80
2023/06/23 09:28:36;;;;;;;10.97;7.70;;;21.60;70.20;;;;;;5089414;28;20480;-81
2023/06/23 09:31:10;;;;;;;12.23;7.67;;;21.60;70.10;;;;;;5085400;28;20544;-80
2023/06/23 09:33:47;;;;;;;18.27;7.50;;;21.60;70.00;;;;;;5092072;28;20464;-82
2023/06/23 09:36:17;;;;;;;14.03;7.37;;;21.50;69.90;;;;;;5087245;28;20478;-81
2023/06/23 09:38:45;;;;;;;12.27;7.60;;;21.50;69.90;;;;;;5083428;28;20468;-81
2023/06/23 09:41:15;;;;;;;10.57;7.00;;;21.40;69.70;;;;;;5085017;28;20458;-80
2023/06/23 09:43:46;;;;;;;10.63;6.90;;;21.40;69.70;;;;;;5083663;28;20457;-81
2023/06/23 09:46:16;;;;;;;14.93;7.67;;;21.40;69.80;;;;;;5085919;28;20612;-79
2023/06/23 09:48:45;;;;;;;13.13;7.83;;;21.40;69.70;;;;;;5084908;28;20448;-80
2023/06/23 09:51:13;;;;;;;11.13;7.47;;;21.50;69.60;;;;;;5075499;28;20458;-81
2023/06/23 09:53:43;;;;;;;10.30;7.20;;;21.40;69.50;;;;;;5088685;28;20879;-79
2023/06/23 09:56:15;;;;;;;10.10;6.60;;;21.30;69.30;;;;;;5084664;28;20453;-79
2023/06/23 09:58:44;;;;;;;12.13;6.83;;;21.30;69.40;;;;;;5071823;28;20545;-82
2023/06/23 10:01:13;;;;;;;9.50;7.40;;;21.40;69.40;;;;;;5082116;28;20461;-80
2023/06/23 10:03:45;;;;;;;9.80;6.77;;;21.40;69.40;;;;;;5084466;28;20480;-79
2023/06/23 10:06:25;;;;;;;13.07;8.00;;;21.50;69.30;;;;;;5086189;28;21085;-80
2023/06/23 10:08:56;;;;;;;11.80;6.83;;;21.50;69.20;;;;;;5081575;28;20455;-80
2023/06/23 10:11:34;;;;;;;9.80;7.33;;;21.50;69.20;;;;;;5085256;28;20452;-80
2023/06/23 10:14:05;;;;;;;9.87;6.90;;;21.50;69.00;;;;;;5089679;28;20452;-79
2023/06/23 10:16:35;;;;;;;11.20;6.57;;;21.50;69.20;;;;;;5069956;28;20461;-80
2023/06/23 10:19:04;;;;;;;10.13;6.73;;;21.50;69.20;;;;;;5065437;28;20499;-80
2023/06/23 10:21:32;;;;;;;11.70;7.90;;;21.60;69.10;;;;;;5080294;28;20499;-80
2023/06/23 10:24:04;;;;;;;11.10;7.80;;;21.60;69.20;;;;;;5067155;28;20633;-81
2023/06/23 10:26:34;;;;;;;12.00;7.43;;;21.60;69.00;;;;;;5085658;28;20978;-81
2023/06/23 10:29:06;;;;;;;12.40;7.50;;;21.70;69.00;;;;;;5078891;28;20762;-80
2023/06/23 10:31:36;;;;;;;12.77;8.43;;;21.70;69.00;;;;;;5060800;28;20461;-78
2023/06/23 10:34:07;;;;;;;9.90;7.77;;;21.70;69.00;;;;;;5079173;28;20494;-79
2023/06/23 10:36:39;;;;;;;12.03;7.60;;;21.80;69.00;;;;;;5085511;28;20463;-81
2023/06/23 10:39:11;;;;;;;11.87;8.03;;;21.80;68.90;;;;;;5069524;28;20453;-78
2023/06/23 10:41:39;;;;;;;9.77;6.90;;;21.80;68.80;;;;;;5085389;28;20449;-79
2023/06/23 10:44:09;;;;;;;12.83;8.33;;;21.80;68.80;;;;;;5085743;28;20496;-79
2023/06/23 10:46:38;;;;;;;9.90;7.80;;;21.70;68.70;;;;;;5084591;28;20483;-79
2023/06/23 10:49:07;;;;;;;11.23;7.27;;;21.60;68.90;;;;;;5081296;28;20486;-79
2023/06/23 10:51:36;;;;;;;10.90;6.90;;;21.50;69.00;;;;;;5081885;28;20467;-80
2023/06/23 10:54:07;;;;;;;10.33;6.73;;;21.40;69.10;;;;;;5077902;28;20463;-79
2023/06/23 10:56:39;;;;;;;9.17;6.23;;;21.40;69.10;;;;;;5065691;28;20449;-79
2023/06/23 10:59:23;;;;;;;10.23;5.83;;;21.30;69.20;;;;;;5082341;28;20465;-80
2023/06/23 11:02:20;;;;;;;12.70;6.60;;;21.30;69.20;;;;;;5081473;28;20518;-79
2023/06/23 11:04:55;;;;;;;10.10;6.53;;;21.40;69.20;;;;;;5078269;28;20581;-78
2023/06/23 11:07:24;;;;;;;9.03;6.00;;;21.30;69.30;;;;;;5065227;28;20459;-79
2023/06/23 11:10:04;;;;;;;10.80;6.03;;;21.30;69.40;;;;;;5066534;28;20457;-81
2023/06/23 11:12:40;;;;;;;8.57;5.53;;;21.30;69.40;;;;;;5075671;28;20456;-80
2023/06/23 11:15:15;;;;;;;9.37;5.40;;;21.30;69.50;;;;;;5077409;28;21410;-81
2023/06/23 11:17:45;;;;;;;9.13;4.87;;;21.40;69.60;;;;;;5069109;28;20463;-82
2023/06/23 11:20:27;;;;;;;10.40;4.83;;;21.50;69.60;;;;;;5079694;28;20457;-80
2023/06/23 11:22:58;;;;;;;6.80;4.27;;;21.60;69.40;;;;;;5081894;28;20464;-81
2023/06/23 11:25:30;;;;;;;7.80;4.10;;;21.60;69.00;;;;;;5087009;28;20936;-78
2023/06/23 11:28:27;;;;;;;9.07;5.00;;;21.60;68.50;;;;;;5080418;28;20481;-81
2023/06/23 11:31:03;;;;;;;7.00;4.40;;;21.60;68.40;;;;;;5081680;28;20472;-80
2023/06/23 11:33:32;;;;;;;7.97;4.23;;;21.60;68.60;;;;;;5083284;28;20509;-81
2023/06/23 11:36:02;;;;;;;7.90;4.10;;;21.60;68.50;;;;;;5082046;28;20471;-79
2023/06/23 11:38:32;;;;;;;6.53;3.50;;;21.70;68.30;;;;;;5082588;28;20457;-80
2023/06/23 11:41:00;;;;;;;8.90;3.43;;;21.60;68.10;;;;;;5081004;28;20461;-81
2023/06/23 11:43:33;;;;;;;6.23;3.53;;;21.60;67.80;;;;;;5089342;28;20534;-81
2023/06/23 11:46:07;;;;;;;6.07;3.03;;;21.60;67.80;;;;;;5063527;28;20489;-79
2023/06/23 11:48:37;;;;;;;5.70;3.00;;;21.40;67.60;;;;;;5067935;28;20823;-80
2023/06/23 11:51:06;;;;;;;10.60;4.00;;;21.40;67.70;;;;;;5084691;28;20477;-79
2023/06/23 11:53:39;;;;;;;6.23;3.30;;;21.40;67.50;;;;;;5090069;28;20938;-81
2023/06/23 11:56:08;;;;;;;7.67;3.50;;;21.40;67.50;;;;;;5090134;28;21323;-82
2023/06/23 11:58:37;;;;;;;8.03;3.80;;;21.40;67.50;;;;;;5091212;28;20465;-80
2023/06/23 12:01:05;;;;;;;6.27;3.13;;;21.50;67.50;;;;;;5084205;28;20468;-81
2023/06/23 12:03:35;;;;;;;7.83;3.67;;;21.50;67.50;;;;;;5085351;28;20471;-81
2023/06/23 12:06:03;;;;;;;7.03;3.40;;;21.60;67.60;;;;;;5087346;28;20492;-79
2023/06/23 12:08:31;;;;;;;8.67;3.53;;;21.50;67.40;;;;;;5086807;28;20585;-81
2023/06/23 12:10:59;;;;;;;7.30;3.70;;;21.60;67.40;;;;;;5066249;28;21165;-79
2023/06/23 12:13:28;;;;;;;6.80;3.50;;;21.60;67.40;;;;;;5070567;28;20462;-78
2023/06/23 12:15:57;;;;;;;8.40;3.40;;;21.60;67.40;;;;;;5066221;28;20492;-80
2023/06/23 12:18:26;;;;;;;6.40;3.20;;;21.70;67.40;;;;;;5085921;28;20471;-81
2023/06/23 12:20:54;;;;;;;6.20;3.27;;;21.70;67.40;;;;;;5080904;28;20475;-81
2023/06/23 12:23:22;;;;;;;7.10;3.30;;;21.80;67.40;;;;;;5081711;28;20543;-81
2023/06/23 12:25:50;;;;;;;6.47;2.90;;;21.80;67.20;;;;;;5073578;28;20472;-79
2023/06/23 12:28:19;;;;;;;7.37;3.47;;;21.80;67.10;;;;;;5085809;28;21118;-80
2023/06/23 12:30:51;;;;;;;9.13;3.90;;;21.90;66.90;;;;;;5088610;28;20563;-80
2023/06/23 12:33:23;;;;;;;5.00;2.73;;;21.90;66.90;;;;;;5070490;28;20464;-78
2023/06/23 12:35:59;;;;;;;6.60;3.50;;;21.90;66.90;;;;;;5070212;28;21033;-79
2023/06/23 12:38:27;;;;;;;7.03;3.70;;;22.00;66.80;;;;;;5084732;28;20468;-79
2023/06/23 12:40:56;;;;;;;7.93;3.30;;;22.00;66.80;;;;;;5090630;28;20958;-80
2023/06/23 12:43:24;;;;;;;7.23;3.40;;;22.10;66.50;;;;;;5071708;28;20459;-80
2023/06/23 12:45:54;;;;;;;5.77;2.83;;;22.10;66.60;;;;;;5088229;28;20489;-80
2023/06/23 12:48:24;;;;;;;6.20;3.03;;;22.10;66.50;;;;;;5084201;28;20486;-80
2023/06/23 12:50:55;;;;;;;5.40;2.60;;;22.00;66.30;;;;;;5087975;28;21058;-81
2023/06/23 12:53:23;;;;;;;6.53;3.13;;;21.90;66.10;;;;;;5080711;28;20883;-80
2023/06/23 12:55:51;;;;;;;6.00;3.03;;;21.90;66.00;;;;;;5088817;28;20449;-81
2023/06/23 12:58:19;;;;;;;6.30;3.20;;;21.80;66.00;;;;;;5068122;28;20470;-79
2023/06/23 13:00:47;;;;;;;7.10;2.90;;;21.80;66.00;;;;;;5086748;28;20552;-79
2023/06/23 13:03:17;;;;;;;5.90;3.00;;;21.80;66.00;;;;;;5083387;28;20971;-81
2023/06/23 13:05:49;;;;;;;6.93;3.37;;;21.80;65.90;;;;;;5080041;28;20449;-79